sensor_id;sensor_type;location;lat;lon;timestamp;pressure;altitude;pressure_sealevel;temperature;humidity
50172;BME280;37125;48.824;2.410;2023-05-20T00:00:12;101299.26;;;23.17;37.16
50172;BME280;37125;48.824;2.410;2023-05-20T00:00:44;101308.23;;;23.19;37.15
50172;BME280;37125;48.824;2.410;2023-05-20T00:01:15;101301.30;;;23.17;37.15
50172;BME280;37125;48.824;2.410;2023-05-20T00:01:45;101301.84;;;23.14;37.23
50172;BME280;37125;48.824;2.410;2023-05-20T00:02:16;101299.45;;;23.17;37.16
50172;BME280;37125;48.824;2.410;2023-05-20T00:02:46;101302.43;;;23.17;37.20
50172;BME280;37125;48.824;2.410;2023-05-20T00:03:18;101303.38;;;23.16;37.26
50172;BME280;37125;48.824;2.410;2023-05-20T00:03:48;101301.99;;;23.18;37.19
50172;BME280;37125;48.824;2.410;2023-05-20T00:04:19;101304.45;;;23.17;37.22
50172;BME280;37125;48.824;2.410;2023-05-20T00:04:49;101303.99;;;23.17;37.24
50172;BME280;37125;48.824;2.410;2023-05-20T00:05:20;101303.90;;;23.16;37.28
50172;BME280;37125;48.824;2.410;2023-05-20T00:05:51;101303.46;;;23.13;37.30
50172;BME280;37125;48.824;2.410;2023-05-20T00:06:21;101301.39;;;23.12;37.30
50172;BME280;37125;48.824;2.410;2023-05-20T00:06:52;101303.47;;;23.17;37.15
50172;BME280;37125;48.824;2.410;2023-05-20T00:07:23;101298.83;;;23.23;36.99
50172;BME280;37125;48.824;2.410;2023-05-20T00:07:53;101301.48;;;23.22;36.99
50172;BME280;37125;48.824;2.410;2023-05-20T00:08:24;101297.30;;;23.20;37.03
50172;BME280;37125;48.824;2.410;2023-05-20T00:08:55;101300.08;;;23.16;37.13
50172;BME280;37125;48.824;2.410;2023-05-20T00:09:25;101296.13;;;23.19;37.06
50172;BME280;37125;48.824;2.410;2023-05-20T00:09:56;101300.24;;;23.17;37.10
50172;BME280;37125;48.824;2.410;2023-05-20T00:10:27;101297.01;;;23.17;37.13
50172;BME280;37125;48.824;2.410;2023-05-20T00:10:57;101302.88;;;23.13;37.27
50172;BME280;37125;48.824;2.410;2023-05-20T00:11:28;101296.10;;;23.10;37.37
50172;BME280;37125;48.824;2.410;2023-05-20T00:11:58;101296.38;;;23.14;37.33
50172;BME280;37125;48.824;2.410;2023-05-20T00:12:29;101296.73;;;23.11;37.40
50172;BME280;37125;48.824;2.410;2023-05-20T00:13:00;101297.36;;;23.17;37.24
50172;BME280;37125;48.824;2.410;2023-05-20T00:13:30;101298.61;;;23.13;37.34
50172;BME280;37125;48.824;2.410;2023-05-20T00:14:01;101302.14;;;23.15;37.30
50172;BME280;37125;48.824;2.410;2023-05-20T00:14:31;101298.41;;;23.06;37.41
50172;BME280;37125;48.824;2.410;2023-05-20T00:15:02;101297.32;;;23.07;37.38
50172;BME280;37125;48.824;2.410;2023-05-20T00:15:33;101299.05;;;23.12;37.30
50172;BME280;37125;48.824;2.410;2023-05-20T00:16:05;101298.60;;;23.16;37.23
50172;BME280;37125;48.824;2.410;2023-05-20T00:16:35;101299.78;;;23.17;37.16
50172;BME280;37125;48.824;2.410;2023-05-20T00:17:06;101298.67;;;23.18;37.05
50172;BME280;37125;48.824;2.410;2023-05-20T00:17:37;101305.04;;;23.18;36.98
50172;BME280;37125;48.824;2.410;2023-05-20T00:18:08;101302.00;;;23.15;37.06
50172;BME280;37125;48.824;2.410;2023-05-20T00:18:38;101304.19;;;23.10;37.12
50172;BME280;37125;48.824;2.410;2023-05-20T00:19:09;101302.46;;;23.14;37.05
50172;BME280;37125;48.824;2.410;2023-05-20T00:19:39;101304.54;;;23.10;37.12
50172;BME280;37125;48.824;2.410;2023-05-20T00:20:10;101302.31;;;23.10;37.16
50172;BME280;37125;48.824;2.410;2023-05-20T00:20:41;101303.61;;;23.10;37.21
50172;BME280;37125;48.824;2.410;2023-05-20T00:21:12;101304.65;;;23.10;37.28
50172;BME280;37125;48.824;2.410;2023-05-20T00:21:42;101305.13;;;23.13;37.20
50172;BME280;37125;48.824;2.410;2023-05-20T00:22:13;101302.36;;;23.10;37.29
50172;BME280;37125;48.824;2.410;2023-05-20T00:22:43;101308.13;;;23.11;37.23
50172;BME280;37125;48.824;2.410;2023-05-20T00:23:14;101309.51;;;23.13;37.23
50172;BME280;37125;48.824;2.410;2023-05-20T00:23:45;101310.10;;;23.11;37.23
50172;BME280;37125;48.824;2.410;2023-05-20T00:24:15;101310.13;;;23.11;37.20
50172;BME280;37125;48.824;2.410;2023-05-20T00:24:46;101309.25;;;23.10;37.19
50172;BME280;37125;48.824;2.410;2023-05-20T00:25:17;101309.53;;;23.14;37.10
50172;BME280;37125;48.824;2.410;2023-05-20T00:25:48;101308.08;;;23.13;37.13
50172;BME280;37125;48.824;2.410;2023-05-20T00:26:18;101306.39;;;23.15;37.06
50172;BME280;37125;48.824;2.410;2023-05-20T00:26:49;101310.72;;;23.13;37.14
50172;BME280;37125;48.824;2.410;2023-05-20T00:27:19;101311.81;;;23.16;37.08
50172;BME280;37125;48.824;2.410;2023-05-20T00:27:50;101312.28;;;23.19;37.09
50172;BME280;37125;48.824;2.410;2023-05-20T00:28:21;101313.26;;;23.12;37.22
50172;BME280;37125;48.824;2.410;2023-05-20T00:28:51;101309.54;;;23.15;37.21
50172;BME280;37125;48.824;2.410;2023-05-20T00:29:22;101309.98;;;23.15;37.19
50172;BME280;37125;48.824;2.410;2023-05-20T00:29:52;101312.68;;;23.17;37.15
50172;BME280;37125;48.824;2.410;2023-05-20T00:30:23;101313.47;;;23.16;37.13
50172;BME280;37125;48.824;2.410;2023-05-20T00:30:54;101313.34;;;23.15;37.20
50172;BME280;37125;48.824;2.410;2023-05-20T00:31:24;101312.91;;;23.10;37.34
50172;BME280;37125;48.824;2.410;2023-05-20T00:31:55;101311.34;;;23.11;37.34
50172;BME280;37125;48.824;2.410;2023-05-20T00:32:25;101313.69;;;23.11;37.37
50172;BME280;37125;48.824;2.410;2023-05-20T00:32:56;101309.40;;;23.10;37.38
50172;BME280;37125;48.824;2.410;2023-05-20T00:33:26;101312.66;;;23.13;37.26
50172;BME280;37125;48.824;2.410;2023-05-20T00:33:57;101314.98;;;23.12;37.33
50172;BME280;37125;48.824;2.410;2023-05-20T00:34:28;101315.05;;;23.06;37.43
50172;BME280;37125;48.824;2.410;2023-05-20T00:34:59;101317.06;;;23.08;37.41
50172;BME280;37125;48.824;2.410;2023-05-20T00:35:30;101315.22;;;23.14;37.29
50172;BME280;37125;48.824;2.410;2023-05-20T00:36:00;101315.06;;;23.15;37.24
50172;BME280;37125;48.824;2.410;2023-05-20T00:36:31;101312.83;;;23.19;37.12
50172;BME280;37125;48.824;2.410;2023-05-20T00:37:01;101313.35;;;23.17;37.17
50172;BME280;37125;48.824;2.410;2023-05-20T00:37:32;101316.30;;;23.14;37.20
50172;BME280;37125;48.824;2.410;2023-05-20T00:38:03;101314.36;;;23.20;37.09
50172;BME280;37125;48.824;2.410;2023-05-20T00:38:34;101312.43;;;23.18;37.14
50172;BME280;37125;48.824;2.410;2023-05-20T00:39:04;101312.35;;;23.18;37.18
50172;BME280;37125;48.824;2.410;2023-05-20T00:39:35;101309.71;;;23.18;37.25
50172;BME280;37125;48.824;2.410;2023-05-20T00:40:07;101309.92;;;23.17;37.28
50172;BME280;37125;48.824;2.410;2023-05-20T00:40:38;101311.32;;;23.18;37.27
50172;BME280;37125;48.824;2.410;2023-05-20T00:41:09;101311.50;;;23.15;37.34
50172;BME280;37125;48.824;2.410;2023-05-20T00:41:39;101312.65;;;23.14;37.34
50172;BME280;37125;48.824;2.410;2023-05-20T00:42:10;101311.67;;;23.15;37.32
50172;BME280;37125;48.824;2.410;2023-05-20T00:42:40;101310.33;;;23.12;37.36
50172;BME280;37125;48.824;2.410;2023-05-20T00:43:11;101309.33;;;23.14;37.27
50172;BME280;37125;48.824;2.410;2023-05-20T00:43:41;101314.15;;;23.15;37.22
50172;BME280;37125;48.824;2.410;2023-05-20T00:44:12;101309.54;;;23.13;37.23
50172;BME280;37125;48.824;2.410;2023-05-20T00:44:43;101310.45;;;23.14;37.20
50172;BME280;37125;48.824;2.410;2023-05-20T00:45:13;101306.98;;;23.10;37.26
50172;BME280;37125;48.824;2.410;2023-05-20T00:45:44;101306.39;;;23.13;37.28
50172;BME280;37125;48.824;2.410;2023-05-20T00:46:15;101305.65;;;23.13;37.25
50172;BME280;37125;48.824;2.410;2023-05-20T00:46:46;101303.76;;;23.17;37.15
50172;BME280;37125;48.824;2.410;2023-05-20T00:47:19;101306.52;;;23.18;37.12
50172;BME280;37125;48.824;2.410;2023-05-20T00:47:50;101299.99;;;23.16;37.17
50172;BME280;37125;48.824;2.410;2023-05-20T00:48:21;101304.27;;;23.13;37.24
50172;BME280;37125;48.824;2.410;2023-05-20T00:48:52;101298.88;;;23.13;37.27
50172;BME280;37125;48.824;2.410;2023-05-20T00:49:23;101298.85;;;23.13;37.29
50172;BME280;37125;48.824;2.410;2023-05-20T00:49:54;101298.73;;;23.09;37.42
50172;BME280;37125;48.824;2.410;2023-05-20T00:50:25;101299.67;;;23.12;37.36
50172;BME280;37125;48.824;2.410;2023-05-20T00:50:55;101298.82;;;23.10;37.40
50172;BME280;37125;48.824;2.410;2023-05-20T00:51:26;101300.03;;;23.08;37.44
50172;BME280;37125;48.824;2.410;2023-05-20T00:51:57;101296.10;;;23.06;37.50
50172;BME280;37125;48.824;2.410;2023-05-20T00:52:30;101301.26;;;23.10;37.44
50172;BME280;37125;48.824;2.410;2023-05-20T00:53:02;101296.12;;;23.08;37.45
50172;BME280;37125;48.824;2.410;2023-05-20T00:53:33;101293.46;;;23.06;37.55
50172;BME280;37125;48.824;2.410;2023-05-20T00:54:04;101295.60;;;23.03;37.61
50172;BME280;37125;48.824;2.410;2023-05-20T00:54:35;101291.51;;;23.02;37.64
50172;BME280;37125;48.824;2.410;2023-05-20T00:55:06;101294.73;;;23.05;37.58
50172;BME280;37125;48.824;2.410;2023-05-20T00:55:37;101292.16;;;23.08;37.53
50172;BME280;37125;48.824;2.410;2023-05-20T00:56:08;101292.00;;;23.04;37.56
50172;BME280;37125;48.824;2.410;2023-05-20T00:56:39;101292.90;;;23.03;37.59
50172;BME280;37125;48.824;2.410;2023-05-20T00:57:10;101290.43;;;23.04;37.51
50172;BME280;37125;48.824;2.410;2023-05-20T00:57:41;101290.14;;;23.08;37.41
50172;BME280;37125;48.824;2.410;2023-05-20T00:58:11;101288.72;;;23.08;37.39
50172;BME280;37125;48.824;2.410;2023-05-20T00:58:42;101289.82;;;23.11;37.34
50172;BME280;37125;48.824;2.410;2023-05-20T00:59:13;101289.44;;;23.11;37.36
50172;BME280;37125;48.824;2.410;2023-05-20T00:59:44;101289.37;;;23.12;37.36
50172;BME280;37125;48.824;2.410;2023-05-20T01:00:15;101289.02;;;23.13;37.37
50172;BME280;37125;48.824;2.410;2023-05-20T01:00:45;101288.27;;;23.07;37.46
50172;BME280;37125;48.824;2.410;2023-05-20T01:01:16;101288.50;;;23.10;37.46
50172;BME280;37125;48.824;2.410;2023-05-20T01:01:47;101288.83;;;23.13;37.39
50172;BME280;37125;48.824;2.410;2023-05-20T01:02:17;101289.21;;;23.13;37.43
50172;BME280;37125;48.824;2.410;2023-05-20T01:02:49;101290.77;;;23.10;37.48
50172;BME280;37125;48.824;2.410;2023-05-20T01:03:19;101288.83;;;23.07;37.47
50172;BME280;37125;48.824;2.410;2023-05-20T01:03:50;101292.82;;;23.10;37.44
50172;BME280;37125;48.824;2.410;2023-05-20T01:04:21;101286.83;;;23.03;37.57
50172;BME280;37125;48.824;2.410;2023-05-20T01:04:52;101287.51;;;23.04;37.58
50172;BME280;37125;48.824;2.410;2023-05-20T01:05:22;101288.29;;;23.07;37.52
50172;BME280;37125;48.824;2.410;2023-05-20T01:05:53;101289.20;;;23.04;37.54
50172;BME280;37125;48.824;2.410;2023-05-20T01:06:24;101289.61;;;23.09;37.47
50172;BME280;37125;48.824;2.410;2023-05-20T01:06:55;101288.07;;;23.10;37.42
50172;BME280;37125;48.824;2.410;2023-05-20T01:07:26;101286.14;;;23.08;37.44
50172;BME280;37125;48.824;2.410;2023-05-20T01:07:56;101284.16;;;23.08;37.43
50172;BME280;37125;48.824;2.410;2023-05-20T01:08:27;101287.98;;;23.13;37.36
50172;BME280;37125;48.824;2.410;2023-05-20T01:08:58;101290.95;;;23.11;37.39
50172;BME280;37125;48.824;2.410;2023-05-20T01:09:29;101291.89;;;23.09;37.42
50172;BME280;37125;48.824;2.410;2023-05-20T01:10:00;101288.77;;;23.05;37.53
50172;BME280;37125;48.824;2.410;2023-05-20T01:10:32;101288.05;;;23.06;37.51
50172;BME280;37125;48.824;2.410;2023-05-20T01:11:07;101287.68;;;23.07;37.50
50172;BME280;37125;48.824;2.410;2023-05-20T01:11:43;101288.27;;;23.02;37.58
50172;BME280;37125;48.824;2.410;2023-05-20T01:12:21;101288.12;;;23.04;37.57
50172;BME280;37125;48.824;2.410;2023-05-20T01:12:55;101288.48;;;23.09;37.41
50172;BME280;37125;48.824;2.410;2023-05-20T01:13:30;101287.14;;;23.09;37.40
50172;BME280;37125;48.824;2.410;2023-05-20T01:14:06;101285.36;;;23.08;37.42
50172;BME280;37125;48.824;2.410;2023-05-20T01:14:50;101289.71;;;23.06;37.48
50172;BME280;37125;48.824;2.410;2023-05-20T01:15:26;101284.43;;;23.06;37.51
50172;BME280;37125;48.824;2.410;2023-05-20T01:15:58;101285.11;;;23.09;37.42
50172;BME280;37125;48.824;2.410;2023-05-20T01:16:30;101287.40;;;23.11;37.39
50172;BME280;37125;48.824;2.410;2023-05-20T01:17:02;101289.63;;;23.12;37.37
50172;BME280;37125;48.824;2.410;2023-05-20T01:17:37;101287.91;;;23.13;37.35
50172;BME280;37125;48.824;2.410;2023-05-20T01:18:09;101286.55;;;23.16;37.31
50172;BME280;37125;48.824;2.410;2023-05-20T01:18:43;101287.03;;;23.07;37.48
50172;BME280;37125;48.824;2.410;2023-05-20T01:19:25;101284.90;;;23.08;37.46
50172;BME280;37125;48.824;2.410;2023-05-20T01:19:57;101283.84;;;23.07;37.48
50172;BME280;37125;48.824;2.410;2023-05-20T01:20:29;101282.30;;;23.10;37.46
50172;BME280;37125;48.824;2.410;2023-05-20T01:21:01;101283.16;;;23.11;37.41
50172;BME280;37125;48.824;2.410;2023-05-20T01:21:32;101284.47;;;23.11;37.43
50172;BME280;37125;48.824;2.410;2023-05-20T01:22:05;101288.09;;;23.09;37.47
50172;BME280;37125;48.824;2.410;2023-05-20T01:22:37;101284.39;;;23.07;37.57
50172;BME280;37125;48.824;2.410;2023-05-20T01:23:07;101285.44;;;23.12;37.50
50172;BME280;37125;48.824;2.410;2023-05-20T01:23:39;101283.03;;;23.10;37.54
50172;BME280;37125;48.824;2.410;2023-05-20T01:24:09;101277.73;;;23.11;37.54
50172;BME280;37125;48.824;2.410;2023-05-20T01:24:41;101276.86;;;23.12;37.60
50172;BME280;37125;48.824;2.410;2023-05-20T01:25:12;101278.61;;;23.12;37.55
50172;BME280;37125;48.824;2.410;2023-05-20T01:25:43;101280.05;;;23.12;37.55
50172;BME280;37125;48.824;2.410;2023-05-20T01:26:14;101274.84;;;23.12;37.56
50172;BME280;37125;48.824;2.410;2023-05-20T01:26:45;101278.03;;;23.09;37.52
50172;BME280;37125;48.824;2.410;2023-05-20T01:27:15;101281.22;;;23.07;37.55
50172;BME280;37125;48.824;2.410;2023-05-20T01:27:46;101281.17;;;23.06;37.57
50172;BME280;37125;48.824;2.410;2023-05-20T01:28:17;101276.05;;;23.08;37.55
50172;BME280;37125;48.824;2.410;2023-05-20T01:28:47;101273.70;;;23.12;37.46
50172;BME280;37125;48.824;2.410;2023-05-20T01:29:18;101274.17;;;23.10;37.50
50172;BME280;37125;48.824;2.410;2023-05-20T01:29:50;101273.63;;;23.08;37.50
50172;BME280;37125;48.824;2.410;2023-05-20T01:30:22;101276.91;;;23.06;37.44
50172;BME280;37125;48.824;2.410;2023-05-20T01:30:55;101276.48;;;23.07;37.43
50172;BME280;37125;48.824;2.410;2023-05-20T01:31:31;101275.86;;;23.07;37.46
50172;BME280;37125;48.824;2.410;2023-05-20T01:32:06;101274.97;;;23.09;37.46
50172;BME280;37125;48.824;2.410;2023-05-20T01:32:41;101277.10;;;23.09;37.48
50172;BME280;37125;48.824;2.410;2023-05-20T01:33:13;101276.20;;;23.07;37.54
50172;BME280;37125;48.824;2.410;2023-05-20T01:33:45;101274.73;;;23.09;37.55
50172;BME280;37125;48.824;2.410;2023-05-20T01:34:17;101277.25;;;23.11;37.51
50172;BME280;37125;48.824;2.410;2023-05-20T01:34:49;101277.04;;;23.06;37.63
50172;BME280;37125;48.824;2.410;2023-05-20T01:35:22;101273.67;;;23.10;37.61
50172;BME280;37125;48.824;2.410;2023-05-20T01:35:53;101273.52;;;23.13;37.57
50172;BME280;37125;48.824;2.410;2023-05-20T01:36:25;101273.82;;;23.08;37.64
50172;BME280;37125;48.824;2.410;2023-05-20T01:36:56;101274.19;;;23.09;37.63
50172;BME280;37125;48.824;2.410;2023-05-20T01:37:27;101275.26;;;23.06;37.67
50172;BME280;37125;48.824;2.410;2023-05-20T01:38:00;101273.99;;;23.05;37.68
50172;BME280;37125;48.824;2.410;2023-05-20T01:38:31;101275.67;;;23.08;37.65
50172;BME280;37125;48.824;2.410;2023-05-20T01:39:03;101275.23;;;23.03;37.71
50172;BME280;37125;48.824;2.410;2023-05-20T01:39:35;101275.17;;;23.07;37.65
50172;BME280;37125;48.824;2.410;2023-05-20T01:40:09;101272.53;;;23.04;37.70
50172;BME280;37125;48.824;2.410;2023-05-20T01:40:42;101272.17;;;23.03;37.74
50172;BME280;37125;48.824;2.410;2023-05-20T01:41:13;101274.81;;;23.03;37.75
50172;BME280;37125;48.824;2.410;2023-05-20T01:41:44;101273.72;;;23.01;37.76
50172;BME280;37125;48.824;2.410;2023-05-20T01:42:16;101270.78;;;23.04;37.70
50172;BME280;37125;48.824;2.410;2023-05-20T01:42:47;101271.06;;;23.01;37.81
50172;BME280;37125;48.824;2.410;2023-05-20T01:43:18;101268.93;;;22.97;37.86
50172;BME280;37125;48.824;2.410;2023-05-20T01:43:50;101267.92;;;23.01;37.80
50172;BME280;37125;48.824;2.410;2023-05-20T01:44:21;101268.54;;;23.03;37.76
50172;BME280;37125;48.824;2.410;2023-05-20T01:44:51;101269.96;;;23.03;37.74
50172;BME280;37125;48.824;2.410;2023-05-20T01:45:22;101269.04;;;23.02;37.77
50172;BME280;37125;48.824;2.410;2023-05-20T01:45:53;101267.82;;;23.01;37.78
50172;BME280;37125;48.824;2.410;2023-05-20T01:46:24;101268.52;;;22.99;37.83
50172;BME280;37125;48.824;2.410;2023-05-20T01:46:55;101266.69;;;22.99;37.77
50172;BME280;37125;48.824;2.410;2023-05-20T01:47:26;101264.29;;;22.99;37.84
50172;BME280;37125;48.824;2.410;2023-05-20T01:47:56;101263.59;;;22.95;37.95
50172;BME280;37125;48.824;2.410;2023-05-20T01:48:27;101263.70;;;22.98;37.85
50172;BME280;37125;48.824;2.410;2023-05-20T01:48:58;101261.94;;;22.99;37.79
50172;BME280;37125;48.824;2.410;2023-05-20T01:49:28;101259.75;;;23.04;37.72
50172;BME280;37125;48.824;2.410;2023-05-20T01:49:59;101257.34;;;23.09;37.65
50172;BME280;37125;48.824;2.410;2023-05-20T01:50:30;101256.79;;;23.08;37.68
50172;BME280;37125;48.824;2.410;2023-05-20T01:51:00;101256.65;;;23.06;37.68
50172;BME280;37125;48.824;2.410;2023-05-20T01:51:31;101258.14;;;23.08;37.65
50172;BME280;37125;48.824;2.410;2023-05-20T01:52:02;101256.23;;;23.10;37.59
50172;BME280;37125;48.824;2.410;2023-05-20T01:52:33;101255.77;;;23.05;37.74
50172;BME280;37125;48.824;2.410;2023-05-20T01:53:03;101255.71;;;23.03;37.74
50172;BME280;37125;48.824;2.410;2023-05-20T01:53:34;101252.49;;;23.03;37.75
50172;BME280;37125;48.824;2.410;2023-05-20T01:54:04;101254.44;;;23.01;37.75
50172;BME280;37125;48.824;2.410;2023-05-20T01:54:35;101252.84;;;23.05;37.72
50172;BME280;37125;48.824;2.410;2023-05-20T01:55:06;101254.00;;;23.05;37.71
50172;BME280;37125;48.824;2.410;2023-05-20T01:55:37;101255.21;;;23.04;37.72
50172;BME280;37125;48.824;2.410;2023-05-20T01:56:08;101254.73;;;23.03;37.73
50172;BME280;37125;48.824;2.410;2023-05-20T01:56:38;101253.22;;;23.04;37.70
50172;BME280;37125;48.824;2.410;2023-05-20T01:57:09;101253.85;;;23.05;37.74
50172;BME280;37125;48.824;2.410;2023-05-20T01:57:40;101253.53;;;22.98;37.81
50172;BME280;37125;48.824;2.410;2023-05-20T01:58:11;101252.03;;;22.96;37.90
50172;BME280;37125;48.824;2.410;2023-05-20T01:58:41;101251.46;;;22.97;37.86
50172;BME280;37125;48.824;2.410;2023-05-20T01:59:12;101250.61;;;22.97;37.89
50172;BME280;37125;48.824;2.410;2023-05-20T01:59:43;101251.85;;;22.98;37.88
50172;BME280;37125;48.824;2.410;2023-05-20T02:00:14;101248.98;;;22.94;37.95
50172;BME280;37125;48.824;2.410;2023-05-20T02:00:44;101249.59;;;23.01;37.80
50172;BME280;37125;48.824;2.410;2023-05-20T02:01:15;101250.17;;;23.01;37.81
50172;BME280;37125;48.824;2.410;2023-05-20T02:01:45;101253.40;;;23.00;37.84
50172;BME280;37125;48.824;2.410;2023-05-20T02:02:16;101251.19;;;22.95;37.94
50172;BME280;37125;48.824;2.410;2023-05-20T02:02:47;101249.79;;;22.99;37.85
50172;BME280;37125;48.824;2.410;2023-05-20T02:03:17;101249.38;;;22.96;37.89
50172;BME280;37125;48.824;2.410;2023-05-20T02:03:48;101249.72;;;23.00;37.82
50172;BME280;37125;48.824;2.410;2023-05-20T02:04:18;101249.37;;;23.00;37.81
50172;BME280;37125;48.824;2.410;2023-05-20T02:04:50;101250.18;;;23.00;37.80
50172;BME280;37125;48.824;2.410;2023-05-20T02:05:21;101249.08;;;23.01;37.78
50172;BME280;37125;48.824;2.410;2023-05-20T02:05:51;101247.50;;;22.99;37.86
50172;BME280;37125;48.824;2.410;2023-05-20T02:06:22;101249.02;;;22.96;37.89
50172;BME280;37125;48.824;2.410;2023-05-20T02:06:52;101250.20;;;23.02;37.81
50172;BME280;37125;48.824;2.410;2023-05-20T02:07:23;101246.13;;;23.05;37.73
50172;BME280;37125;48.824;2.410;2023-05-20T02:07:54;101245.44;;;23.02;37.79
50172;BME280;37125;48.824;2.410;2023-05-20T02:08:24;101247.26;;;23.03;37.76
50172;BME280;37125;48.824;2.410;2023-05-20T02:08:55;101245.86;;;23.01;37.79
50172;BME280;37125;48.824;2.410;2023-05-20T02:09:27;101246.40;;;23.00;37.81
50172;BME280;37125;48.824;2.410;2023-05-20T02:09:58;101245.71;;;23.02;37.75
50172;BME280;37125;48.824;2.410;2023-05-20T02:10:28;101244.68;;;23.05;37.69
50172;BME280;37125;48.824;2.410;2023-05-20T02:10:59;101246.51;;;23.02;37.77
50172;BME280;37125;48.824;2.410;2023-05-20T02:11:30;101249.34;;;23.03;37.78
50172;BME280;37125;48.824;2.410;2023-05-20T02:12:00;101244.17;;;22.99;37.86
50172;BME280;37125;48.824;2.410;2023-05-20T02:12:31;101246.35;;;22.97;37.89
50172;BME280;37125;48.824;2.410;2023-05-20T02:13:01;101244.46;;;22.99;37.89
50172;BME280;37125;48.824;2.410;2023-05-20T02:13:32;101243.98;;;22.97;37.88
50172;BME280;37125;48.824;2.410;2023-05-20T02:14:02;101242.69;;;22.90;38.01
50172;BME280;37125;48.824;2.410;2023-05-20T02:14:33;101246.08;;;22.94;37.97
50172;BME280;37125;48.824;2.410;2023-05-20T02:15:05;101245.12;;;22.97;37.91
50172;BME280;37125;48.824;2.410;2023-05-20T02:15:40;101246.66;;;22.97;37.94
50172;BME280;37125;48.824;2.410;2023-05-20T02:16:11;101248.22;;;23.02;37.81
50172;BME280;37125;48.824;2.410;2023-05-20T02:16:41;101245.53;;;23.03;37.77
50172;BME280;37125;48.824;2.410;2023-05-20T02:17:12;101246.67;;;22.97;37.82
50172;BME280;37125;48.824;2.410;2023-05-20T02:17:43;101245.03;;;22.98;37.80
50172;BME280;37125;48.824;2.410;2023-05-20T02:18:14;101244.30;;;23.00;37.78
50172;BME280;37125;48.824;2.410;2023-05-20T02:18:44;101245.04;;;23.02;37.74
50172;BME280;37125;48.824;2.410;2023-05-20T02:19:15;101242.83;;;23.01;37.74
50172;BME280;37125;48.824;2.410;2023-05-20T02:19:45;101244.50;;;23.02;37.71
50172;BME280;37125;48.824;2.410;2023-05-20T02:20:16;101241.08;;;23.00;37.72
50172;BME280;37125;48.824;2.410;2023-05-20T02:20:46;101242.41;;;22.97;37.82
50172;BME280;37125;48.824;2.410;2023-05-20T02:21:17;101244.63;;;22.97;37.83
50172;BME280;37125;48.824;2.410;2023-05-20T02:21:48;101247.22;;;22.91;37.91
50172;BME280;37125;48.824;2.410;2023-05-20T02:22:19;101246.23;;;22.97;37.80
50172;BME280;37125;48.824;2.410;2023-05-20T02:22:50;101245.48;;;22.98;37.80
50172;BME280;37125;48.824;2.410;2023-05-20T02:23:20;101247.98;;;23.00;37.77
50172;BME280;37125;48.824;2.410;2023-05-20T02:23:51;101250.95;;;22.94;37.89
50172;BME280;37125;48.824;2.410;2023-05-20T02:24:21;101247.02;;;23.00;37.76
50172;BME280;37125;48.824;2.410;2023-05-20T02:24:52;101246.95;;;22.96;37.82
50172;BME280;37125;48.824;2.410;2023-05-20T02:25:23;101243.87;;;22.97;37.85
50172;BME280;37125;48.824;2.410;2023-05-20T02:25:54;101246.75;;;22.96;37.88
50172;BME280;37125;48.824;2.410;2023-05-20T02:26:24;101248.79;;;22.96;37.87
50172;BME280;37125;48.824;2.410;2023-05-20T02:26:55;101249.27;;;22.97;37.90
50172;BME280;37125;48.824;2.410;2023-05-20T02:27:25;101248.38;;;22.97;37.87
50172;BME280;37125;48.824;2.410;2023-05-20T02:27:56;101249.37;;;22.97;37.84
50172;BME280;37125;48.824;2.410;2023-05-20T02:28:26;101249.35;;;22.99;37.81
50172;BME280;37125;48.824;2.410;2023-05-20T02:28:57;101249.71;;;23.01;37.77
50172;BME280;37125;48.824;2.410;2023-05-20T02:29:28;101249.61;;;23.01;37.77
50172;BME280;37125;48.824;2.410;2023-05-20T02:29:59;101251.26;;;23.02;37.73
50172;BME280;37125;48.824;2.410;2023-05-20T02:30:29;101250.07;;;22.98;37.82
50172;BME280;37125;48.824;2.410;2023-05-20T02:31:00;101250.72;;;22.92;37.94
50172;BME280;37125;48.824;2.410;2023-05-20T02:31:31;101252.32;;;22.93;37.93
50172;BME280;37125;48.824;2.410;2023-05-20T02:32:01;101249.28;;;22.96;37.89
50172;BME280;37125;48.824;2.410;2023-05-20T02:32:32;101249.41;;;22.93;38.00
50172;BME280;37125;48.824;2.410;2023-05-20T02:33:03;101246.29;;;22.96;37.92
50172;BME280;37125;48.824;2.410;2023-05-20T02:33:33;101251.37;;;22.92;38.00
50172;BME280;37125;48.824;2.410;2023-05-20T02:34:04;101248.10;;;22.90;38.03
50172;BME280;37125;48.824;2.410;2023-05-20T02:34:34;101246.54;;;22.95;37.96
50172;BME280;37125;48.824;2.410;2023-05-20T02:35:05;101246.96;;;22.90;38.05
50172;BME280;37125;48.824;2.410;2023-05-20T02:35:36;101247.35;;;22.90;38.08
50172;BME280;37125;48.824;2.410;2023-05-20T02:36:07;101248.53;;;22.83;38.19
50172;BME280;37125;48.824;2.410;2023-05-20T02:36:37;101251.03;;;22.82;38.19
50172;BME280;37125;48.824;2.410;2023-05-20T02:37:08;101248.87;;;22.93;37.97
50172;BME280;37125;48.824;2.410;2023-05-20T02:37:38;101247.33;;;22.95;37.96
50172;BME280;37125;48.824;2.410;2023-05-20T02:38:09;101246.21;;;22.86;38.12
50172;BME280;37125;48.824;2.410;2023-05-20T02:38:40;101245.51;;;22.93;37.99
50172;BME280;37125;48.824;2.410;2023-05-20T02:39:10;101245.67;;;22.92;38.05
50172;BME280;37125;48.824;2.410;2023-05-20T02:39:41;101246.46;;;22.96;37.99
50172;BME280;37125;48.824;2.410;2023-05-20T02:40:11;101247.30;;;22.99;37.91
50172;BME280;37125;48.824;2.410;2023-05-20T02:40:43;101251.85;;;22.97;37.98
50172;BME280;37125;48.824;2.410;2023-05-20T02:41:14;101244.84;;;22.96;37.96
50172;BME280;37125;48.824;2.410;2023-05-20T02:41:44;101245.86;;;22.95;37.95
50172;BME280;37125;48.824;2.410;2023-05-20T02:42:15;101247.01;;;22.90;38.05
50172;BME280;37125;48.824;2.410;2023-05-20T02:42:45;101243.98;;;22.87;38.07